Time;durP1;ratioP1;P1;durP2;ratioP2;P2;SDS_P1;SDS_P2;PMS_P1;PMS_P2;Temp;Humidity;BMP_temperature;BMP_pressure;BME280_temperature;BME280_humidity;BME280_pressure;Samples;Min_cycle;Max_cycle;Signal;HPM_P1;HPM_P2
2022/12/10 00:00:39;;;;;;;96.45;49.15;;;-1.10;99.90;;;;;;5058204;28;20098;-41
2022/12/10 00:03:05;;;;;;;97.22;47.50;;;-1.20;99.90;;;;;;5056943;28;20053;-42
2022/12/10 00:05:33;;;;;;;105.05;51.35;;;-1.20;99.90;;;;;;5058804;28;20048;-44
2022/12/10 00:07:59;;;;;;;98.25;46.53;;;-1.20;99.90;;;;;;5058343;28;20121;-43
2022/12/10 00:10:25;;;;;;;95.20;51.53;;;-1.20;99.90;;;;;;5057964;28;20041;-45
2022/12/10 00:12:50;;;;;;;103.13;48.88;;;-1.10;99.90;;;;;;5049171;28;20051;-44
2022/12/10 00:15:16;;;;;;;101.07;49.25;;;-1.20;99.90;;;;;;5058151;28;20131;-40
2022/12/10 00:17:42;;;;;;;97.97;47.72;;;-1.30;99.90;;;;;;5058243;28;20386;-44
2022/12/10 00:20:09;;;;;;;98.72;48.20;;;-1.20;99.90;;;;;;5057691;28;20491;-45
2022/12/10 00:22:34;;;;;;;96.05;47.60;;;-1.30;99.90;;;;;;5058295;28;20458;-42
2022/12/10 00:25:00;;;;;;;105.63;48.15;;;-1.30;99.90;;;;;;5058149;28;20055;-45
2022/12/10 00:27:26;;;;;;;98.40;48.78;;;-1.20;99.90;;;;;;5058204;28;20542;-42
2022/12/10 00:29:51;;;;;;;102.30;48.63;;;-1.20;99.90;;;;;;5056790;28;20880;-43
2022/12/10 00:32:17;;;;;;;99.53;48.33;;;-1.30;99.90;;;;;;5057537;28;20691;-44
2022/12/10 00:34:43;;;;;;;98.57;46.88;;;-1.30;99.90;;;;;;5056782;28;20155;-40
2022/12/10 00:37:08;;;;;;;101.88;48.35;;;-1.20;99.90;;;;;;5058021;28;20362;-41
2022/12/10 00:39:34;;;;;;;97.78;46.30;;;-1.40;99.90;;;;;;5057207;28;20087;-43
2022/12/10 00:41:59;;;;;;;100.25;45.83;;;-1.30;99.90;;;;;;5057649;28;20037;-42
2022/12/10 00:44:25;;;;;;;102.63;48.90;;;-1.20;99.90;;;;;;5058261;28;20131;-43
2022/12/10 00:46:51;;;;;;;106.07;48.00;;;-1.20;99.90;;;;;;5057973;28;20044;-42
2022/12/10 00:49:16;;;;;;;94.28;44.40;;;-1.30;99.90;;;;;;5056549;28;20116;-45
2022/12/10 00:51:42;;;;;;;102.72;48.88;;;-1.40;99.90;;;;;;5057630;28;20475;-41
2022/12/10 00:54:08;;;;;;;98.05;47.25;;;-1.30;99.90;;;;;;5058197;28;20344;-44
2022/12/10 00:56:34;;;;;;;103.05;47.00;;;-1.40;99.90;;;;;;5045504;28;20105;-41
2022/12/10 00:59:01;;;;;;;90.82;43.47;;;-1.40;99.90;;;;;;5057767;28;20044;-43
2022/12/10 01:01:36;;;;;;;90.97;43.28;;;-1.40;99.90;;;;;;5057398;28;20414;-43
2022/12/10 01:04:08;;;;;;;101.43;48.03;;;-1.50;99.90;;;;;;5057904;28;20052;-46
2022/12/10 01:06:40;;;;;;;104.57;47.17;;;-1.40;99.90;;;;;;5057374;28;20128;-43
2022/12/10 01:09:08;;;;;;;96.22;45.28;;;-1.30;99.90;;;;;;5057408;28;20812;-42
2022/12/10 01:11:37;;;;;;;102.47;48.42;;;-1.30;99.90;;;;;;5053671;28;20052;-44
2022/12/10 01:14:03;;;;;;;99.72;46.40;;;-1.30;99.90;;;;;;5050933;28;20056;-43
2022/12/10 01:16:29;;;;;;;106.32;49.00;;;-1.40;99.90;;;;;;5057969;28;20250;-45
2022/12/10 01:18:56;;;;;;;102.88;46.00;;;-1.30;99.90;;;;;;5055010;28;20137;-42
2022/12/10 01:21:22;;;;;;;96.38;47.40;;;-1.30;99.90;;;;;;5056316;28;20151;-41
2022/12/10 01:23:50;;;;;;;96.57;45.33;;;-1.50;99.90;;;;;;5057525;28;20040;-46
2022/12/10 01:26:23;;;;;;;98.40;47.35;;;-1.50;99.90;;;;;;5055807;28;20044;-44
2022/12/10 01:28:51;;;;;;;96.65;48.88;;;-1.60;99.90;;;;;;5057004;28;20048;-43
2022/12/10 01:31:28;;;;;;;98.15;47.03;;;-1.60;99.90;;;;;;5055237;28;20044;-43
2022/12/10 01:33:55;;;;;;;102.93;45.63;;;-1.80;99.90;;;;;;5057010;28;20508;-44
2022/12/10 01:36:29;;;;;;;98.78;47.05;;;-1.80;99.90;;;;;;5056924;28;20044;-43
2022/12/10 01:38:55;;;;;;;101.85;47.42;;;-1.80;99.90;;;;;;5056486;28;20048;-45
2022/12/10 01:41:27;;;;;;;99.57;46.78;;;-1.80;99.90;;;;;;5056200;28;20044;-40
2022/12/10 01:44:08;;;;;;;97.80;45.88;;;-1.80;99.90;;;;;;5057485;28;20051;-42
2022/12/10 01:46:37;;;;;;;98.35;43.92;;;-1.90;99.90;;;;;;5055190;28;20485;-44
2022/12/10 01:49:07;;;;;;;98.13;45.50;;;-1.90;99.90;;;;;;5056208;28;20410;-45
2022/12/10 01:51:35;;;;;;;100.18;44.63;;;-2.00;99.90;;;;;;5055907;28;20385;-43
2022/12/10 01:54:03;;;;;;;96.25;44.55;;;-2.00;99.90;;;;;;5057198;28;20045;-41
2022/12/10 01:56:30;;;;;;;100.18;45.45;;;-2.00;99.90;;;;;;5044234;28;20151;-42
2022/12/10 01:58:56;;;;;;;97.40;43.92;;;-2.00;99.90;;;;;;5057217;28;20049;-41
2022/12/10 02:01:22;;;;;;;105.15;46.70;;;-1.90;99.90;;;;;;5055896;28;20079;-41
2022/12/10 02:04:43;;;;;;;98.63;47.83;;;-2.00;99.90;;;;;;5056636;28;20041;-42
2022/12/10 02:07:35;;;;;;;100.10;46.15;;;-1.90;99.90;;;;;;5002868;28;20295;-44
2022/12/10 02:10:27;;;;;;;106.20;46.88;;;-2.10;99.90;;;;;;5001241;28;20096;-41
2022/12/10 02:13:15;;;;;;;102.45;47.05;;;-2.10;99.90;;;;;;4996750;28;20060;-44
2022/12/10 02:16:13;;;;;;;100.90;44.75;;;-2.10;99.90;;;;;;4994560;28;20046;-43
2022/12/10 02:18:45;;;;;;;110.13;48.08;;;-2.00;99.90;;;;;;5012803;28;20060;-46
2022/12/10 02:21:18;;;;;;;105.07;46.72;;;-2.10;99.90;;;;;;4993386;28;20045;-41
2022/12/10 02:23:48;;;;;;;108.43;48.55;;;-2.10;99.90;;;;;;4994024;28;20057;-43
2022/12/10 02:26:32;;;;;;;108.70;46.60;;;-2.10;99.90;;;;;;4994077;28;20100;-46
2022/12/10 02:29:12;;;;;;;101.20;47.08;;;-2.20;99.90;;;;;;5010863;28;20076;-42
2022/12/10 02:31:42;;;;;;;104.57;48.90;;;-2.30;99.90;;;;;;4999775;28;20438;-44
2022/12/10 02:34:09;;;;;;;121.38;50.53;;;-2.20;99.90;;;;;;4993845;28;20056;-43
2022/12/10 02:36:39;;;;;;;111.15;48.00;;;-2.20;99.90;;;;;;4995594;28;20057;-44
2022/12/10 02:39:09;;;;;;;106.05;47.17;;;-2.30;99.90;;;;;;5056178;28;20485;-42
2022/12/10 02:41:39;;;;;;;115.40;48.13;;;-2.30;99.90;;;;;;5055507;28;20408;-41
2022/12/10 02:44:09;;;;;;;111.03;47.88;;;-2.20;99.90;;;;;;5056749;28;20135;-41
2022/12/10 02:46:38;;;;;;;115.63;48.72;;;-2.20;99.90;;;;;;5056268;28;20118;-44
2022/12/10 02:49:05;;;;;;;122.43;49.47;;;-2.30;99.90;;;;;;5055898;28;20053;-41
2022/12/10 02:51:31;;;;;;;120.28;51.15;;;-2.10;99.90;;;;;;5055901;28;20057;-40
2022/12/10 02:54:02;;;;;;;121.55;51.78;;;-2.10;99.90;;;;;;5056357;28;20048;-41
2022/12/10 02:56:36;;;;;;;125.53;52.70;;;-2.10;99.90;;;;;;5044055;28;20074;-44
2022/12/10 02:59:23;;;;;;;132.40;53.95;;;-2.10;99.90;;;;;;5055898;28;20130;-44
2022/12/10 03:02:19;;;;;;;128.60;53.30;;;-2.20;99.90;;;;;;5055477;28;20310;-41
2022/12/10 03:04:58;;;;;;;134.98;56.95;;;-2.10;99.90;;;;;;5056341;28;20634;-43
2022/12/10 03:07:48;;;;;;;132.27;55.10;;;-2.00;99.90;;;;;;5056329;28;20055;-42
2022/12/10 03:10:49;;;;;;;133.52;55.80;;;-1.90;99.90;;;;;;5055248;28;20126;-42
2022/12/10 03:13:18;;;;;;;135.18;55.17;;;-1.90;99.90;;;;;;4980596;28;20064;-43
2022/12/10 03:15:44;;;;;;;139.60;56.50;;;-1.90;99.90;;;;;;4976935;28;20057;-43
2022/12/10 03:18:12;;;;;;;134.40;55.47;;;-1.70;99.90;;;;;;4992614;28;20192;-43
2022/12/10 03:20:42;;;;;;;137.50;54.40;;;-1.60;99.90;;;;;;4992410;28;20082;-44
2022/12/10 03:23:11;;;;;;;135.30;55.92;;;-1.70;99.90;;;;;;4992814;28;20041;-43
2022/12/10 03:25:38;;;;;;;133.75;53.00;;;-1.50;99.90;;;;;;4993190;28;20114;-42
2022/12/10 03:28:04;;;;;;;150.70;58.80;;;-1.50;99.90;;;;;;4977076;28;20286;-43
2022/12/10 03:30:35;;;;;;;172.90;62.15;;;-1.50;99.90;;;;;;4992849;28;20061;-42
2022/12/10 03:33:02;;;;;;;177.13;57.90;;;-1.40;99.90;;;;;;4993121;28;20046;-43
2022/12/10 03:35:28;;;;;;;182.82;58.63;;;-1.50;99.90;;;;;;4993413;28;20137;-46
2022/12/10 03:37:54;;;;;;;187.68;58.33;;;-1.20;99.90;;;;;;4993593;28;20137;-44
2022/12/10 03:40:23;;;;;;;217.65;65.70;;;-1.40;99.90;;;;;;4992451;28;20057;-42
2022/12/10 03:42:49;;;;;;;159.50;54.28;;;-1.20;99.90;;;;;;4996171;28;20424;-41
2022/12/10 03:45:15;;;;;;;239.57;63.72;;;-1.40;99.90;;;;;;4996805;28;20049;-45
2022/12/10 03:47:41;;;;;;;206.02;63.83;;;-1.20;99.90;;;;;;4996740;28;20049;-41
2022/12/10 03:50:07;;;;;;;228.10;60.42;;;-1.20;99.90;;;;;;5027475;28;20113;-43
2022/12/10 03:52:33;;;;;;;237.18;61.58;;;-1.20;99.90;;;;;;5057902;28;20110;-41
2022/12/10 03:54:59;;;;;;;289.45;68.07;;;-1.30;99.90;;;;;;5056367;28;20823;-42
2022/12/10 03:57:24;;;;;;;299.75;68.70;;;-1.10;99.90;;;;;;5049555;28;20753;-41
2022/12/10 03:59:50;;;;;;;321.90;70.95;;;-1.30;99.90;;;;;;5058548;28;20079;-41
2022/12/10 04:02:16;;;;;;;333.83;75.63;;;-1.10;99.90;;;;;;5059259;28;20390;-42
2022/12/10 04:04:41;;;;;;;301.75;68.43;;;-1.20;99.90;;;;;;5058835;28;20045;-44
2022/12/10 04:07:07;;;;;;;307.40;66.88;;;-1.20;99.90;;;;;;5058884;28;20363;-45
2022/12/10 04:09:33;;;;;;;360.75;70.18;;;-1.20;99.90;;;;;;5057747;28;20049;-43
2022/12/10 04:11:59;;;;;;;342.58;69.28;;;-1.20;99.90;;;;;;5053000;28;20048;-45
2022/12/10 04:17:11;;;;;;;462.10;79.07;;;-1.10;99.90;;;;;;5058488;28;20087;-41
2022/12/10 04:19:37;;;;;;;350.52;72.97;;;-0.90;99.90;;;;;;5057374;28;20051;-43
2022/12/10 04:26:51;;;;;;;455.25;77.95;;;-1.10;99.90;;;;;;5047823;28;20060;-43
2022/12/10 04:27:51;;;;;;;438.27;79.82;;;-0.90;99.90;;;;;;5045915;28;20079;-43
2022/12/10 04:30:16;;;;;;;472.98;82.85;;;-1.10;99.90;;;;;;5058035;28;20475;-42
2022/12/10 04:32:42;;;;;;;469.98;83.13;;;-0.90;99.90;;;;;;5059155;28;20463;-42
2022/12/10 04:35:08;;;;;;;501.13;83.53;;;-0.80;99.90;;;;;;5058557;28;20052;-41
2022/12/10 04:37:34;;;;;;;496.08;84.25;;;-0.90;99.90;;;;;;5058499;28;20097;-40
2022/12/10 04:39:59;;;;;;;511.17;86.70;;;-0.80;99.90;;;;;;5057378;28;20179;-45
2022/12/10 04:42:25;;;;;;;521.80;91.47;;;-1.00;99.90;;;;;;5057865;28;20123;-43
2022/12/10 04:44:51;;;;;;;531.40;89.10;;;-0.90;99.90;;;;;;5057757;28;20074;-43
2022/12/10 04:47:16;;;;;;;578.92;90.28;;;-0.90;99.90;;;;;;5045633;28;20041;-43
2022/12/10 04:49:42;;;;;;;538.33;87.70;;;-0.90;99.90;;;;;;5056795;28;20040;-46
2022/12/10 04:52:11;;;;;;;558.53;91.82;;;-0.90;99.90;;;;;;5057595;28;20050;-42
2022/12/10 04:54:37;;;;;;;505.70;83.13;;;-0.80;99.90;;;;;;5057488;28;20048;-45
2022/12/10 04:57:02;;;;;;;550.65;88.15;;;-0.70;99.90;;;;;;5045451;28;20379;-42
2022/12/10 04:59:28;;;;;;;570.63;88.30;;;-0.90;99.90;;;;;;5057215;28;20420;-43
2022/12/10 05:01:54;;;;;;;528.13;87.22;;;-0.80;99.90;;;;;;5058199;28;20076;-44
2022/12/10 05:04:19;;;;;;;521.15;81.50;;;-0.80;99.90;;;;;;5057539;28;20044;-44
2022/12/10 05:06:48;;;;;;;603.42;91.22;;;-0.80;99.90;;;;;;5057537;28;20063;-43
2022/12/10 05:09:13;;;;;;;548.70;86.32;;;-0.70;99.90;;;;;;5057286;28;20449;-45
2022/12/10 05:11:40;;;;;;;578.25;87.25;;;-0.70;99.90;;;;;;5053378;28;20041;-43
2022/12/10 05:14:06;;;;;;;620.38;91.88;;;-0.60;99.90;;;;;;5051546;28;20032;-41
2022/12/10 05:16:33;;;;;;;567.95;88.95;;;-0.70;99.90;;;;;;5057744;28;20411;-43
2022/12/10 05:18:59;;;;;;;582.55;90.60;;;-0.70;99.90;;;;;;5057498;28;20049;-43
2022/12/10 05:24:12;;;;;;;573.80;83.70;;;-0.80;99.90;;;;;;5057075;28;20506;-44
2022/12/10 05:26:37;;;;;;;560.60;83.78;;;-0.60;99.90;;;;;;5057206;28;20046;-42
2022/12/10 05:29:03;;;;;;;621.40;94.82;;;-0.80;99.90;;;;;;5057049;28;20040;-44
2022/12/10 05:31:30;;;;;;;524.13;79.60;;;-0.70;99.90;;;;;;5057063;28;20496;-43
2022/12/10 05:33:57;;;;;;;564.35;83.85;;;-0.60;99.90;;;;;;5057225;28;20040;-43
2022/12/10 05:36:25;;;;;;;549.08;82.35;;;-0.60;99.90;;;;;;5056560;28;20109;-42
2022/12/10 05:38:52;;;;;;;481.35;75.72;;;-0.70;99.90;;;;;;5056621;28;20404;-44
2022/12/10 05:41:21;;;;;;;548.50;84.15;;;-0.60;99.90;;;;;;5056363;28;20823;-42
2022/12/10 05:43:48;;;;;;;556.38;82.30;;;-0.70;99.90;;;;;;5057449;28;20226;-44
2022/12/10 05:46:20;;;;;;;501.73;77.43;;;-0.70;99.90;;;;;;5057053;28;20053;-48
2022/12/10 05:48:46;;;;;;;579.17;82.18;;;-0.70;99.90;;;;;;5056329;28;20044;-43
2022/12/10 05:51:14;;;;;;;552.78;81.60;;;-0.60;99.90;;;;;;5054743;28;20372;-42
2022/12/10 05:53:40;;;;;;;582.53;81.97;;;-0.70;99.90;;;;;;5056748;28;20446;-42
2022/12/10 05:56:09;;;;;;;476.02;71.97;;;-0.60;99.90;;;;;;5044498;28;20133;-44
2022/12/10 05:58:35;;;;;;;464.38;68.43;;;-0.70;99.90;;;;;;5043015;28;20541;-42
2022/12/10 06:01:07;;;;;;;470.17;71.00;;;-0.50;99.90;;;;;;5054881;28;20491;-45
2022/12/10 06:03:33;;;;;;;565.45;78.78;;;-0.50;99.90;;;;;;5056363;28;20409;-44
2022/12/10 06:05:58;;;;;;;511.70;70.45;;;-0.70;99.90;;;;;;5056667;28;20045;-45
2022/12/10 06:08:24;;;;;;;549.65;75.13;;;-0.60;99.90;;;;;;5057092;28;20072;-41
2022/12/10 06:10:50;;;;;;;502.77;71.85;;;-0.50;99.90;;;;;;5056409;28;20427;-41
2022/12/10 06:13:15;;;;;;;522.55;74.57;;;-0.70;99.90;;;;;;5047805;28;20037;-43
2022/12/10 06:15:42;;;;;;;494.05;67.88;;;-0.60;99.90;;;;;;5054935;28;20052;-42
2022/12/10 06:18:07;;;;;;;466.52;65.53;;;-0.70;99.90;;;;;;5055765;28;20091;-43
2022/12/10 06:20:34;;;;;;;559.10;74.90;;;-0.80;99.90;;;;;;5055593;28;20132;-44
2022/12/10 06:22:59;;;;;;;520.92;69.07;;;-0.60;99.90;;;;;;5057186;28;20443;-42
2022/12/10 06:25:25;;;;;;;518.63;67.25;;;-0.70;99.90;;;;;;5056731;28;20483;-46
2022/12/10 06:27:51;;;;;;;474.52;64.05;;;-0.70;99.90;;;;;;5056551;28;20157;-43
2022/12/10 06:30:17;;;;;;;439.70;59.22;;;-0.60;99.90;;;;;;5055867;28;20068;-45
2022/12/10 06:32:45;;;;;;;505.90;63.22;;;-0.70;99.90;;;;;;5057152;28;20047;-40
2022/12/10 06:35:11;;;;;;;539.88;66.57;;;-0.60;99.90;;;;;;5056565;28;20303;-41
2022/12/10 06:37:37;;;;;;;427.33;54.35;;;-0.60;99.90;;;;;;5056364;28;20052;-43
2022/12/10 06:40:04;;;;;;;452.98;56.60;;;-0.70;99.90;;;;;;5055357;28;20045;-42
2022/12/10 06:42:30;;;;;;;514.03;62.58;;;-0.80;99.90;;;;;;5056147;28;20105;-46
2022/12/10 06:44:56;;;;;;;475.08;58.78;;;-0.60;99.90;;;;;;5056440;28;20498;-41
2022/12/10 06:47:21;;;;;;;473.88;58.88;;;-0.60;99.90;;;;;;5055804;28;20092;-45
2022/12/10 06:49:47;;;;;;;520.30;65.05;;;-0.80;99.90;;;;;;5055168;28;20072;-46
2022/12/10 06:52:13;;;;;;;472.45;59.75;;;-0.80;99.90;;;;;;5056256;28;20044;-46
2022/12/10 06:54:39;;;;;;;392.27;53.63;;;-0.70;99.90;;;;;;5055868;28;20049;-42
2022/12/10 06:57:05;;;;;;;408.92;56.38;;;-0.70;99.90;;;;;;5043540;28;20348;-42
2022/12/10 06:59:30;;;;;;;404.48;53.35;;;-0.80;99.90;;;;;;5055530;28;20041;-41
2022/12/10 07:01:56;;;;;;;414.42;56.47;;;-0.80;99.90;;;;;;5055882;28;20080;-43
2022/12/10 07:04:22;;;;;;;347.13;48.08;;;-0.80;99.90;;;;;;5056028;28;20431;-42
2022/12/10 07:06:47;;;;;;;330.48;47.97;;;-0.90;99.90;;;;;;5055706;28;20118;-42
2022/12/10 07:09:13;;;;;;;320.55;48.75;;;-0.90;99.90;;;;;;5054450;28;20055;-42
2022/12/10 07:11:39;;;;;;;369.92;54.40;;;-0.90;99.90;;;;;;5051617;28;20053;-42
2022/12/10 07:14:05;;;;;;;337.80;51.22;;;-0.90;99.90;;;;;;5050054;28;20040;-45
2022/12/10 07:16:32;;;;;;;408.25;57.55;;;-0.80;99.90;;;;;;5057305;28;20041;-41
2022/12/10 07:19:00;;;;;;;366.77;53.38;;;-0.90;99.90;;;;;;5059909;28;20124;-45
2022/12/10 07:21:31;;;;;;;386.40;56.45;;;-1.00;99.90;;;;;;5058316;28;20056;-42
2022/12/10 07:24:00;;;;;;;389.23;53.60;;;-1.00;99.90;;;;;;5060330;28;20299;-41
2022/12/10 07:26:29;;;;;;;380.27;55.60;;;-0.80;99.90;;;;;;5068857;28;20032;-41
2022/12/10 07:28:54;;;;;;;352.55;49.03;;;-1.00;99.90;;;;;;5063042;28;20545;-43
2022/12/10 07:31:21;;;;;;;313.52;48.65;;;-1.00;99.90;;;;;;5059513;28;20087;-43
2022/12/10 07:33:48;;;;;;;308.10;51.10;;;-1.00;99.90;;;;;;5059879;28;20098;-42
2022/12/10 07:36:14;;;;;;;365.33;55.08;;;-0.90;99.90;;;;;;5058769;28;20102;-46
2022/12/10 07:38:40;;;;;;;337.88;53.78;;;-0.80;99.90;;;;;;5058709;28;20109;-44
2022/12/10 07:41:09;;;;;;;367.33;53.80;;;-0.90;99.90;;;;;;5058574;28;20457;-42
2022/12/10 07:43:36;;;;;;;301.42;46.65;;;-0.90;99.90;;;;;;5058750;28;20040;-43
2022/12/10 07:46:11;;;;;;;251.55;43.15;;;-0.90;99.90;;;;;;5059582;28;20044;-43
2022/12/10 07:48:38;;;;;;;331.77;49.65;;;-0.80;99.90;;;;;;5058857;28;20469;-42
2022/12/10 07:51:04;;;;;;;296.25;44.63;;;-1.00;99.90;;;;;;5058892;28;20036;-46
2022/12/10 07:53:29;;;;;;;316.33;50.05;;;-0.90;99.90;;;;;;5059465;28;20165;-44
2022/12/10 07:55:55;;;;;;;267.33;43.38;;;-0.90;99.90;;;;;;5048870;28;20068;-43
2022/12/10 07:58:21;;;;;;;272.48;47.58;;;-1.00;99.90;;;;;;5056534;28;20091;-42
2022/12/10 08:00:46;;;;;;;232.98;43.22;;;-0.80;99.90;;;;;;5059015;28;20127;-42
2022/12/10 08:03:12;;;;;;;251.95;46.00;;;-0.90;99.90;;;;;;5058901;28;20527;-42
2022/12/10 08:05:38;;;;;;;265.27;50.13;;;-1.00;99.90;;;;;;5058962;28;20124;-46
2022/12/10 08:08:04;;;;;;;278.80;52.63;;;-1.00;99.90;;;;;;5058366;28;20040;-43
2022/12/10 08:10:29;;;;;;;300.23;53.05;;;-0.90;99.90;;;;;;5058209;28;20047;-44
2022/12/10 08:12:55;;;;;;;318.20;54.30;;;-0.90;99.90;;;;;;5057172;28;20037;-42
2022/12/10 08:15:21;;;;;;;307.75;52.30;;;-0.90;99.90;;;;;;5059296;28;20049;-41
2022/12/10 08:17:46;;;;;;;273.70;45.35;;;-0.90;99.90;;;;;;5058816;28;20048;-42
2022/12/10 08:20:12;;;;;;;261.73;45.13;;;-1.00;99.90;;;;;;5058398;28;20422;-41
2022/12/10 08:22:39;;;;;;;292.55;46.17;;;-1.10;99.90;;;;;;5058741;28;20062;-41
2022/12/10 08:25:05;;;;;;;268.92;45.80;;;-0.80;99.90;;;;;;5058861;28;20052;-42
2022/12/10 08:27:30;;;;;;;251.82;43.90;;;-1.00;99.90;;;;;;5057922;28;20109;-42
2022/12/10 08:29:56;;;;;;;257.20;45.70;;;-0.80;99.90;;;;;;5057972;28;20545;-44
2022/12/10 08:32:22;;;;;;;297.70;48.63;;;-1.10;99.90;;;;;;5059028;28;20719;-43
2022/12/10 08:34:48;;;;;;;242.15;42.28;;;-0.90;99.90;;;;;;5059225;28;20037;-41
2022/12/10 08:37:14;;;;;;;261.77;43.17;;;-0.90;99.90;;;;;;5057456;28;20064;-44
2022/12/10 08:39:40;;;;;;;253.65;42.45;;;-0.90;99.90;;;;;;5057419;28;20149;-43
2022/12/10 08:42:05;;;;;;;242.43;41.80;;;-0.90;99.90;;;;;;5058221;28;20391;-43
2022/12/10 08:44:31;;;;;;;249.50;40.40;;;-1.00;99.90;;;;;;5057724;28;20836;-41
2022/12/10 08:46:57;;;;;;;264.88;41.80;;;-0.80;99.90;;;;;;5058784;28;20116;-45
2022/12/10 08:49:23;;;;;;;225.52;39.03;;;-0.80;99.90;;;;;;5056201;28;20050;-42
2022/12/10 08:51:48;;;;;;;267.83;45.03;;;-0.90;99.90;;;;;;5058169;28;20040;-43
2022/12/10 08:54:14;;;;;;;218.82;41.65;;;-1.00;99.90;;;;;;5057965;28;20048;-42
2022/12/10 08:56:40;;;;;;;286.45;45.15;;;-0.90;99.90;;;;;;5045561;28;20372;-44
2022/12/10 08:59:06;;;;;;;265.23;44.83;;;-0.80;99.90;;;;;;5057781;28;20433;-41
2022/12/10 09:01:32;;;;;;;261.20;46.60;;;-0.90;99.90;;;;;;5058214;28;20045;-45
2022/12/10 09:03:58;;;;;;;217.63;40.25;;;-1.00;99.90;;;;;;5058729;28;20060;-45
2022/12/10 09:06:24;;;;;;;233.55;44.97;;;-0.80;99.90;;;;;;5057624;28;20408;-44
2022/12/10 09:08:50;;;;;;;283.90;46.60;;;-0.80;99.90;;;;;;5057159;28;20044;-44
2022/12/10 09:11:25;;;;;;;299.00;50.17;;;-0.70;99.90;;;;;;5054625;28;20041;-43
2022/12/10 09:13:50;;;;;;;263.40;47.00;;;-0.70;99.90;;;;;;5052996;28;20078;-42
2022/12/10 09:16:17;;;;;;;263.73;46.40;;;-0.70;99.90;;;;;;5033050;28;20131;-46
2022/12/10 09:18:43;;;;;;;254.45;44.47;;;-0.80;99.90;;;;;;5041969;28;20514;-41
2022/12/10 09:21:12;;;;;;;282.45;47.30;;;-0.80;99.90;;;;;;5054663;28;20193;-47
2022/12/10 09:23:38;;;;;;;270.65;45.72;;;-0.70;99.90;;;;;;5056813;28;20151;-42
2022/12/10 09:26:10;;;;;;;314.73;50.20;;;-0.70;99.90;;;;;;5056337;28;20088;-45
2022/12/10 09:28:37;;;;;;;296.90;47.72;;;-0.80;99.90;;;;;;5056020;28;20056;-43
2022/12/10 09:31:05;;;;;;;296.52;48.88;;;-0.80;99.90;;;;;;5056807;28;20041;-42
2022/12/10 09:33:31;;;;;;;288.17;45.47;;;-0.90;99.90;;;;;;5055929;28;20732;-43
2022/12/10 09:35:57;;;;;;;247.60;43.95;;;-0.70;99.90;;;;;;5056696;28;20518;-45
2022/12/10 09:38:24;;;;;;;276.23;48.55;;;-0.60;99.90;;;;;;5056474;28;20055;-42
2022/12/10 09:41:04;;;;;;;253.95;43.20;;;-0.80;99.90;;;;;;5056057;28;20403;-43
2022/12/10 09:43:47;;;;;;;228.15;42.65;;;-0.60;99.90;;;;;;5056982;28;20044;-43
2022/12/10 09:46:26;;;;;;;284.00;47.70;;;-0.60;99.90;;;;;;5055251;28;20044;-42
2022/12/10 09:49:15;;;;;;;242.07;43.67;;;-0.80;99.90;;;;;;5044447;28;20051;-45
2022/12/10 09:51:40;;;;;;;298.15;46.45;;;-0.60;99.90;;;;;;4995361;28;20400;-46
2022/12/10 09:54:22;;;;;;;309.55;51.00;;;-0.80;99.90;;;;;;5010112;28;20055;-44
2022/12/10 09:56:49;;;;;;;267.17;46.97;;;-0.50;99.90;;;;;;5007092;28;20058;-43
2022/12/10 09:59:38;;;;;;;263.88;46.72;;;-0.70;99.90;;;;;;4985224;28;20462;-45
2022/12/10 10:02:19;;;;;;;251.73;41.80;;;-0.60;99.90;;;;;;5011187;28;20060;-43
2022/12/10 10:04:45;;;;;;;300.55;45.55;;;-0.50;99.90;;;;;;4996336;28;20605;-43
2022/12/10 10:07:31;;;;;;;241.25;42.95;;;-0.60;99.90;;;;;;4993958;28;20122;-43
2022/12/10 10:10:01;;;;;;;233.93;43.33;;;-0.60;99.90;;;;;;4989483;28;20050;-42
2022/12/10 10:12:30;;;;;;;260.00;43.35;;;-0.50;99.90;;;;;;5000061;28;20049;-44
2022/12/10 10:14:55;;;;;;;242.88;44.08;;;-0.50;99.90;;;;;;4993983;28;20065;-45
2022/12/10 10:17:36;;;;;;;241.27;43.90;;;-0.70;99.90;;;;;;4995226;28;20378;-41
2022/12/10 10:20:02;;;;;;;302.55;45.88;;;-0.50;99.90;;;;;;5011809;28;20124;-46
2022/12/10 10:22:28;;;;;;;244.00;42.47;;;-0.70;99.90;;;;;;5000676;28;20042;-41
2022/12/10 10:24:54;;;;;;;212.90;41.08;;;-0.70;99.90;;;;;;5013453;28;20048;-44
2022/12/10 10:27:28;;;;;;;238.65;45.67;;;-0.70;99.90;;;;;;5008625;28;20045;-43
2022/12/10 10:29:56;;;;;;;211.85;41.75;;;-0.60;99.90;;;;;;5047522;28;20098;-42
2022/12/10 10:32:35;;;;;;;206.82;42.83;;;-0.70;99.90;;;;;;5060489;28;20831;-42
2022/12/10 10:35:01;;;;;;;181.55;38.17;;;-0.70;99.90;;;;;;5062272;28;20055;-42
2022/12/10 10:37:33;;;;;;;212.65;42.10;;;-0.40;99.90;;;;;;5054572;28;20048;-43
2022/12/10 10:39:59;;;;;;;224.00;45.58;;;-0.60;99.90;;;;;;5055840;28;20058;-44
2022/12/10 10:42:48;;;;;;;159.75;38.55;;;-0.40;99.90;;;;;;5054319;28;20052;-44
2022/12/10 10:45:35;;;;;;;197.10;39.95;;;-0.40;99.90;;;;;;5052614;28;20147;-43
2022/12/10 10:48:08;;;;;;;138.13;35.05;;;-0.60;99.90;;;;;;5054822;28;20133;-43
2022/12/10 10:50:45;;;;;;;158.73;37.17;;;-0.50;99.90;;;;;;5056232;28;20135;-45
2022/12/10 10:53:30;;;;;;;173.73;38.97;;;-0.60;99.90;;;;;;5059658;28;20048;-43
2022/12/10 10:55:58;;;;;;;180.45;37.75;;;-0.40;99.90;;;;;;5049261;28;20059;-44
2022/12/10 10:58:25;;;;;;;105.10;31.10;;;-0.60;99.90;;;;;;5057893;28;20063;-46
2022/12/10 11:01:00;;;;;;;156.80;37.47;;;-0.40;99.90;;;;;;5058908;28;20059;-45
2022/12/10 11:03:28;;;;;;;164.52;39.33;;;-0.50;99.90;;;;;;5047011;28;20044;-45
2022/12/10 11:05:55;;;;;;;176.50;42.40;;;-0.50;99.90;;;;;;5058296;28;20122;-42
2022/12/10 11:08:25;;;;;;;155.80;41.30;;;-0.30;99.90;;;;;;5059099;28;20055;-42
2022/12/10 11:11:12;;;;;;;144.00;39.42;;;-0.30;99.90;;;;;;5058328;28;20116;-46
2022/12/10 11:13:39;;;;;;;147.85;36.83;;;-0.20;99.90;;;;;;5054770;28;20049;-45
2022/12/10 11:16:23;;;;;;;151.15;40.42;;;-0.30;99.90;;;;;;5057174;28;20048;-43
2022/12/10 11:19:01;;;;;;;162.95;39.67;;;-0.30;99.90;;;;;;5058479;28;20173;-44
2022/12/10 11:21:31;;;;;;;156.73;41.10;;;-0.30;99.90;;;;;;5058784;28;20169;-45
2022/12/10 11:23:59;;;;;;;170.80;40.90;;;-0.40;99.90;;;;;;5058521;28;20060;-42
2022/12/10 11:26:37;;;;;;;148.30;39.60;;;-0.40;99.90;;;;;;5059781;28;20053;-43
2022/12/10 11:29:10;;;;;;;145.48;37.75;;;-0.20;99.90;;;;;;5058092;28;20140;-46
2022/12/10 11:31:54;;;;;;;147.52;40.08;;;-0.20;99.90;;;;;;5059072;28;20098;-42
2022/12/10 11:34:25;;;;;;;127.90;37.35;;;-0.20;99.90;;;;;;5059138;28;20044;-42
2022/12/10 11:37:14;;;;;;;97.57;33.85;;;-0.20;99.90;;;;;;5059179;28;20068;-44
2022/12/10 11:39:48;;;;;;;121.53;36.72;;;-0.30;99.90;;;;;;5003490;28;20140;-43
2022/12/10 11:42:21;;;;;;;117.72;36.70;;;0.00;99.90;;;;;;5022599;28;20087;-44
2022/12/10 11:44:56;;;;;;;136.25;38.85;;;0.00;99.90;;;;;;5035158;28;20319;-47
2022/12/10 11:47:29;;;;;;;139.40;38.60;;;-0.20;99.90;;;;;;5015873;28;20049;-43
2022/12/10 11:50:24;;;;;;;136.07;40.17;;;0.10;99.90;;;;;;5032219;28;20045;-48
2022/12/10 11:53:15;;;;;;;161.00;40.35;;;0.00;99.90;;;;;;5019479;28;20489;-44
2022/12/10 11:55:50;;;;;;;156.25;41.67;;;-0.10;99.90;;;;;;5004168;28;20054;-43
2022/12/10 11:58:18;;;;;;;178.30;44.35;;;-0.20;99.90;;;;;;5009859;28;20096;-43
2022/12/10 12:01:13;;;;;;;158.57;40.17;;;-0.30;99.90;;;;;;5023764;28;20582;-44
2022/12/10 12:04:03;;;;;;;149.48;39.42;;;0.00;99.90;;;;;;4936164;28;20130;-43
2022/12/10 12:06:35;;;;;;;153.50;41.97;;;-0.20;99.90;;;;;;4936826;29;20105;-45
2022/12/10 12:09:25;;;;;;;117.15;37.30;;;-0.10;99.90;;;;;;4920968;29;20055;-42
2022/12/10 12:12:06;;;;;;;119.88;37.90;;;-0.10;99.90;;;;;;4927581;29;20612;-43
2022/12/10 12:14:50;;;;;;;113.63;37.85;;;0.10;99.90;;;;;;4936978;28;20407;-46
2022/12/10 12:17:27;;;;;;;123.13;39.25;;;-0.10;99.90;;;;;;4966127;28;20591;-44
2022/12/10 12:19:57;;;;;;;131.57;39.63;;;0.00;99.90;;;;;;4986498;28;20050;-45
2022/12/10 12:22:27;;;;;;;137.23;41.22;;;-0.10;99.90;;;;;;4989014;28;20058;-42
2022/12/10 12:25:14;;;;;;;113.55;38.75;;;0.00;99.90;;;;;;4976506;28;20086;-41
2022/12/10 12:27:48;;;;;;;139.45;39.70;;;-0.10;99.90;;;;;;4975451;28;20070;-42
2022/12/10 12:30:17;;;;;;;108.47;38.65;;;0.10;99.90;;;;;;4974811;28;20136;-44
2022/12/10 12:33:10;;;;;;;114.68;36.97;;;-0.10;99.90;;;;;;4967488;28;20388;-41
2022/12/10 12:35:42;;;;;;;112.60;37.90;;;0.10;99.90;;;;;;4976458;28;20556;-46
2022/12/10 12:38:33;;;;;;;136.27;38.92;;;0.00;99.90;;;;;;4987684;28;20049;-46
2022/12/10 12:41:40;;;;;;;139.38;41.13;;;0.10;99.90;;;;;;5028659;28;20429;-44